sensor_id;sensor_type;location;lat;lon;timestamp;pressure;altitude;pressure_sealevel;temperature;humidity
74435;BME280;62867;52.038;29.256;2023-07-30T00:00:14;1017.8;;;17;68.5
74435;BME280;62867;52.038;29.256;2023-07-30T00:05:32;1017.9;;;17;68.5
74435;BME280;62867;52.038;29.256;2023-07-30T00:10:35;1017.9;;;17;68.5
74435;BME280;62867;52.038;29.256;2023-07-30T00:16:02;1017.8;;;16.9;68.5
74435;BME280;62867;52.038;29.256;2023-07-30T00:20:14;1017.8;;;16.9;68.5
74435;BME280;62867;52.038;29.256;2023-07-30T00:25:14;1017.8;;;16.9;68.7
74435;BME280;62867;52.038;29.256;2023-07-30T00:30:26;1017.8;;;16.9;69
74435;BME280;62867;52.038;29.256;2023-07-30T00:35:28;1017.8;;;16.9;68.6
74435;BME280;62867;52.038;29.256;2023-07-30T00:40:32;1017.8;;;16.9;68.5
74435;BME280;62867;52.038;29.256;2023-07-30T00:45:48;1017.7;;;16.8;68.4
74435;BME280;62867;52.038;29.256;2023-07-30T00:51:02;1017.8;;;16.8;68.6
74435;BME280;62867;52.038;29.256;2023-07-30T00:55:32;1017.8;;;16.8;68.6
74435;BME280;62867;52.038;29.256;2023-07-30T01:00:32;1017.8;;;16.7;68.4
74435;BME280;62867;52.038;29.256;2023-07-30T01:06:02;1017.8;;;16.7;68.5
74435;BME280;62867;52.038;29.256;2023-07-30T01:10:30;1017.8;;;16.6;68.7
74435;BME280;62867;52.038;29.256;2023-07-30T01:15:18;1017.8;;;16.6;68.8
74435;BME280;62867;52.038;29.256;2023-07-30T01:20:52;1017.9;;;16.6;68.9
74435;BME280;62867;52.038;29.256;2023-07-30T01:26:03;1018;;;16.6;69
74435;BME280;62867;52.038;29.256;2023-07-30T01:30:16;1018;;;16.6;69.2
74435;BME280;62867;52.038;29.256;2023-07-30T01:35:14;1017.9;;;16.6;69.2
74435;BME280;62867;52.038;29.256;2023-07-30T01:41:02;1017.8;;;16.6;68.8
74435;BME280;62867;52.038;29.256;2023-07-30T01:46:00;1017.8;;;16.6;68.5
74435;BME280;62867;52.038;29.256;2023-07-30T01:50:14;1017.9;;;16.5;68.4
74435;BME280;62867;52.038;29.256;2023-07-30T01:55:32;1017.9;;;16.5;68.6
74435;BME280;62867;52.038;29.256;2023-07-30T02:01:02;1018;;;16.5;68.5
74435;BME280;62867;52.038;29.256;2023-07-30T02:05:46;1018;;;16.4;68.7
74435;BME280;62867;52.038;29.256;2023-07-30T02:11:02;1018;;;16.4;68.9
74435;BME280;62867;52.038;29.256;2023-07-30T02:15:32;1018;;;16.4;69
74435;BME280;62867;52.038;29.256;2023-07-30T02:20:44;1018.1;;;16.4;69
74435;BME280;62867;52.038;29.256;2023-07-30T02:25:46;1018.1;;;16.4;69
74435;BME280;62867;52.038;29.256;2023-07-30T02:30:30;1018.1;;;16.4;68.9
74435;BME280;62867;52.038;29.256;2023-07-30T02:36:03;1018.1;;;16.4;68.9
74435;BME280;62867;52.038;29.256;2023-07-30T02:40:18;1018;;;16.4;69
74435;BME280;62867;52.038;29.256;2023-07-30T02:46:02;1018;;;16.4;68.8
74435;BME280;62867;52.038;29.256;2023-07-30T02:50:18;1018;;;16.5;68.7
74435;BME280;62867;52.038;29.256;2023-07-30T02:56:02;1018;;;16.6;68.3
74435;BME280;62867;52.038;29.256;2023-07-30T03:01:06;1018;;;16.8;68.2
74435;BME280;62867;52.038;29.256;2023-07-30T03:05:34;1017.9;;;16.9;68.1
74435;BME280;62867;52.038;29.256;2023-07-30T03:10:46;1017.8;;;17.1;67.9
74435;BME280;62867;52.038;29.256;2023-07-30T03:15:28;1017.8;;;17.3;67.7
74435;BME280;62867;52.038;29.256;2023-07-30T03:20:48;1017.8;;;17.5;67.5
74435;BME280;62867;52.038;29.256;2023-07-30T03:25:46;1017.8;;;17.7;67.3
74435;BME280;62867;52.038;29.256;2023-07-30T03:30:32;1017.8;;;17.9;67.2
74435;BME280;62867;52.038;29.256;2023-07-30T03:35:48;1017.7;;;18.1;66.8
74435;BME280;62867;52.038;29.256;2023-07-30T03:41:04;1017.6;;;18.3;66.2
74435;BME280;62867;52.038;29.256;2023-07-30T03:45:30;1017.6;;;18.5;66
74435;BME280;62867;52.038;29.256;2023-07-30T03:50:30;1017.5;;;18.8;65.9
74435;BME280;62867;52.038;29.256;2023-07-30T03:55:46;1017.5;;;19;65.8
74435;BME280;62867;52.038;29.256;2023-07-30T04:00:46;1017.5;;;19.2;65.8
74435;BME280;62867;52.038;29.256;2023-07-30T04:05:30;1017.6;;;19.5;65.7
74435;BME280;62867;52.038;29.256;2023-07-30T04:10:14;1017.5;;;19.8;65.6
74435;BME280;62867;52.038;29.256;2023-07-30T04:15:16;1017.5;;;20;65.4
74435;BME280;62867;52.038;29.256;2023-07-30T04:20:42;1017.5;;;20.3;65.1
74435;BME280;62867;52.038;29.256;2023-07-30T04:25:28;1017.4;;;20.5;64.3
74435;BME280;62867;52.038;29.256;2023-07-30T04:31:00;1017.4;;;20.8;64
74435;BME280;62867;52.038;29.256;2023-07-30T04:35:44;1017.3;;;21;63.5
74435;BME280;62867;52.038;29.256;2023-07-30T04:41:00;1017.3;;;21.3;62.3
74435;BME280;62867;52.038;29.256;2023-07-30T04:45:16;1017.4;;;21.5;61.4
74435;BME280;62867;52.038;29.256;2023-07-30T04:50:44;1017.4;;;21.7;60.7
74435;BME280;62867;52.038;29.256;2023-07-30T04:55:26;1017.4;;;21.9;60
74435;BME280;62867;52.038;29.256;2023-07-30T05:00:28;1017.3;;;22.1;59.4
74435;BME280;62867;52.038;29.256;2023-07-30T05:05:30;1017.3;;;22.4;59
74435;BME280;62867;52.038;29.256;2023-07-30T05:10:46;1017.4;;;22.6;58.1
74435;BME280;62867;52.038;29.256;2023-07-30T05:16:00;1017.4;;;22.8;57.3
74435;BME280;62867;52.038;29.256;2023-07-30T05:20:30;1017.3;;;22.9;57.3
74435;BME280;62867;52.038;29.256;2023-07-30T05:25:46;1017.3;;;23.2;57
74435;BME280;62867;52.038;29.256;2023-07-30T05:30:44;1017.3;;;23.3;56.1
74435;BME280;62867;52.038;29.256;2023-07-30T05:36:00;1017.2;;;23.5;55.8
74435;BME280;62867;52.038;29.256;2023-07-30T05:40:16;1017.2;;;23.7;54.9
74435;BME280;62867;52.038;29.256;2023-07-30T05:45:14;1017.2;;;24.1;54.7
74435;BME280;62867;52.038;29.256;2023-07-30T05:51:00;1017.3;;;24.3;53
74435;BME280;62867;52.038;29.256;2023-07-30T05:55:16;1017.3;;;24.6;52.6
74435;BME280;62867;52.038;29.256;2023-07-30T06:00:14;1017.1;;;24.9;52.4
74435;BME280;62867;52.038;29.256;2023-07-30T06:05:16;1017.1;;;25.3;52.1
74435;BME280;62867;52.038;29.256;2023-07-30T06:10:46;1017.1;;;25.7;51.3
74435;BME280;62867;52.038;29.256;2023-07-30T06:15:58;1017.1;;;25.9;50.4
74435;BME280;62867;52.038;29.256;2023-07-30T06:20:46;1017.1;;;26.1;50.2
74435;BME280;62867;52.038;29.256;2023-07-30T06:25:58;1017;;;26.4;48.8
74435;BME280;62867;52.038;29.256;2023-07-30T06:30:14;1017.1;;;26.6;47.8
74435;BME280;62867;52.038;29.256;2023-07-30T06:35:56;1017.1;;;26.3;47.5
74435;BME280;62867;52.038;29.256;2023-07-30T06:40:44;1017.1;;;26;48.6
74435;BME280;62867;52.038;29.256;2023-07-30T06:45:48;1017.1;;;25.8;49.6
74435;BME280;62867;52.038;29.256;2023-07-30T06:50:46;1017;;;25.7;49.4
74435;BME280;62867;52.038;29.256;2023-07-30T06:55:46;1017;;;25.6;49.3
74435;BME280;62867;52.038;29.256;2023-07-30T07:00:32;1017;;;25.6;50.1
74435;BME280;62867;52.038;29.256;2023-07-30T07:05:28;1017;;;25.6;49.7
74435;BME280;62867;52.038;29.256;2023-07-30T07:11:02;1017;;;26.1;48.9
74435;BME280;62867;52.038;29.256;2023-07-30T07:15:30;1017;;;26.6;47.6
74435;BME280;62867;52.038;29.256;2023-07-30T07:21:02;1016.9;;;26.9;47.3
74435;BME280;62867;52.038;29.256;2023-07-30T07:26:02;1016.9;;;26.8;46.6
74435;BME280;62867;52.038;29.256;2023-07-30T07:30:40;1016.9;;;26.8;46.2
74435;BME280;62867;52.038;29.256;2023-07-30T07:35:14;1016.8;;;27.1;46.7
74435;BME280;62867;52.038;29.256;2023-07-30T07:40:28;1016.7;;;27.7;46
74435;BME280;62867;52.038;29.256;2023-07-30T07:46:02;1016.7;;;28.1;44.5
74435;BME280;62867;52.038;29.256;2023-07-30T07:50:46;1016.7;;;28.1;43.9
74435;BME280;62867;52.038;29.256;2023-07-30T07:55:14;1016.7;;;28.4;43.5
74435;BME280;62867;52.038;29.256;2023-07-30T08:00:48;1016.7;;;28.4;44.4
74435;BME280;62867;52.038;29.256;2023-07-30T08:06:02;1016.6;;;28.6;44.9
74435;BME280;62867;52.038;29.256;2023-07-30T08:10:44;1016.6;;;28.8;44.2
74435;BME280;62867;52.038;29.256;2023-07-30T08:15:28;1016.6;;;28.8;44
74435;BME280;62867;52.038;29.256;2023-07-30T08:20:46;1016.5;;;28.8;44.3
74435;BME280;62867;52.038;29.256;2023-07-30T08:25:26;1016.4;;;28.6;43.8
74435;BME280;62867;52.038;29.256;2023-07-30T08:30:34;1016.4;;;28.5;45.2
74435;BME280;62867;52.038;29.256;2023-07-30T08:35:34;1016.4;;;28.4;45.2
74435;BME280;62867;52.038;29.256;2023-07-30T08:40:34;1016.5;;;28.1;44.9
74435;BME280;62867;52.038;29.256;2023-07-30T08:45:46;1016.5;;;27.8;46.3
74435;BME280;62867;52.038;29.256;2023-07-30T08:50:32;1016.5;;;27.4;46.4
74435;BME280;62867;52.038;29.256;2023-07-30T08:56:00;1016.5;;;27.1;47.5
74435;BME280;62867;52.038;29.256;2023-07-30T09:00:49;1016.5;;;26.6;48.6
74435;BME280;62867;52.038;29.256;2023-07-30T09:05:32;1016.4;;;26.4;49.6
74435;BME280;62867;52.038;29.256;2023-07-30T09:10:34;1016.4;;;26.3;49.5
74435;BME280;62867;52.038;29.256;2023-07-30T09:15:29;1016.4;;;26.4;51.5
74435;BME280;62867;52.038;29.256;2023-07-30T09:20:14;1016.4;;;26.7;52.4
74435;BME280;62867;52.038;29.256;2023-07-30T09:25:32;1016.4;;;26.8;51.8
74435;BME280;62867;52.038;29.256;2023-07-30T09:30:34;1016.3;;;26.6;51.2
74435;BME280;62867;52.038;29.256;2023-07-30T09:35:50;1016.3;;;26.2;52.5
74435;BME280;62867;52.038;29.256;2023-07-30T09:40:15;1016.2;;;26;52.8
74435;BME280;62867;52.038;29.256;2023-07-30T09:45:25;1016.2;;;25.8;54.3
74435;BME280;62867;52.038;29.256;2023-07-30T09:50:15;1016.2;;;25.8;55.3
74435;BME280;62867;52.038;29.256;2023-07-30T09:56:05;1016.2;;;25.8;54.2
74435;BME280;62867;52.038;29.256;2023-07-30T10:01:04;1016.2;;;25.8;55
74435;BME280;62867;52.038;29.256;2023-07-30T10:05:34;1016.3;;;25.9;55
74435;BME280;62867;52.038;29.256;2023-07-30T10:10:14;1016.4;;;25.9;54.3
74435;BME280;62867;52.038;29.256;2023-07-30T10:16:08;1016.6;;;25.7;54
74435;BME280;62867;52.038;29.256;2023-07-30T10:20:28;1016.6;;;25.6;54.7
74435;BME280;62867;52.038;29.256;2023-07-30T10:25:49;1016.5;;;25.3;54.8
74435;BME280;62867;52.038;29.256;2023-07-30T10:30:52;1016.5;;;25.1;55.7
74435;BME280;62867;52.038;29.256;2023-07-30T10:35:53;1016.4;;;25;56.1
74435;BME280;62867;52.038;29.256;2023-07-30T10:41:05;1016.4;;;24.7;57.5
74435;BME280;62867;52.038;29.256;2023-07-30T10:45:34;1016.4;;;24.4;58.7
74435;BME280;62867;52.038;29.256;2023-07-30T10:51:03;1016.5;;;24.1;59.4
74435;BME280;62867;52.038;29.256;2023-07-30T10:55:34;1016.6;;;23.9;60.6
74435;BME280;62867;52.038;29.256;2023-07-30T11:01:03;1016.6;;;23.6;61.4
74435;BME280;62867;52.038;29.256;2023-07-30T11:05:48;1016.7;;;23.4;62.9
74435;BME280;62867;52.038;29.256;2023-07-30T11:10:50;1016.7;;;23.3;63.8
74435;BME280;62867;52.038;29.256;2023-07-30T11:15:48;1016.6;;;23.1;64
74435;BME280;62867;52.038;29.256;2023-07-30T11:20:48;1016.3;;;23;64.1
74435;BME280;62867;52.038;29.256;2023-07-30T11:25:28;1016.2;;;22.9;64.4
74435;BME280;62867;52.038;29.256;2023-07-30T11:30:38;1016.1;;;22.7;64.6
74435;BME280;62867;52.038;29.256;2023-07-30T11:36:03;1016.2;;;22.6;64.9
74435;BME280;62867;52.038;29.256;2023-07-30T11:40:30;1016.2;;;22.5;65.3
74435;BME280;62867;52.038;29.256;2023-07-30T11:46:06;1016.1;;;22.4;66.3
74435;BME280;62867;52.038;29.256;2023-07-30T11:51:03;1016.2;;;22.5;66.7
74435;BME280;62867;52.038;29.256;2023-07-30T11:55:48;1016.3;;;22.5;66.7
74435;BME280;62867;52.038;29.256;2023-07-30T12:00:32;1016.3;;;22.6;66.6
74435;BME280;62867;52.038;29.256;2023-07-30T12:05:16;1016.3;;;22.6;67.3
74435;BME280;62867;52.038;29.256;2023-07-30T12:11:03;1016.3;;;22.8;67.5
74435;BME280;62867;52.038;29.256;2023-07-30T12:15:50;1016.2;;;23.3;66.7
74435;BME280;62867;52.038;29.256;2023-07-30T12:20:34;1016.1;;;24.1;64.5
74435;BME280;62867;52.038;29.256;2023-07-30T12:25:51;1016;;;24.8;63.4
74435;BME280;62867;52.038;29.256;2023-07-30T12:31:02;1016;;;25.2;62.2
74435;BME280;62867;52.038;29.256;2023-07-30T12:35:14;1015.9;;;25.4;61.5
74435;BME280;62867;52.038;29.256;2023-07-30T12:40:16;1015.8;;;25.1;61.5
74435;BME280;62867;52.038;29.256;2023-07-30T12:45:47;1016;;;24.8;61.7
74435;BME280;62867;52.038;29.256;2023-07-30T12:50:46;1016;;;24.5;62.1
74435;BME280;62867;52.038;29.256;2023-07-30T12:55:34;1016;;;24.2;62.9
74435;BME280;62867;52.038;29.256;2023-07-30T13:00:28;1016;;;24.2;63.6
74435;BME280;62867;52.038;29.256;2023-07-30T13:05:14;1016;;;24;64.3
74435;BME280;62867;52.038;29.256;2023-07-30T13:10:20;1016;;;23.9;64.2
74435;BME280;62867;52.038;29.256;2023-07-30T13:15:14;1016;;;23.9;64.3
74435;BME280;62867;52.038;29.256;2023-07-30T13:20:50;1015.9;;;24;64.2
74435;BME280;62867;52.038;29.256;2023-07-30T13:25:48;1015.8;;;24.1;64.2
74435;BME280;62867;52.038;29.256;2023-07-30T13:31:04;1015.7;;;24.3;64.2
74435;BME280;62867;52.038;29.256;2023-07-30T13:35:34;1015.7;;;24.6;63.8
74435;BME280;62867;52.038;29.256;2023-07-30T13:40:14;1015.6;;;24.9;63.1
74435;BME280;62867;52.038;29.256;2023-07-30T13:46:05;1015.5;;;25;62.8
74435;BME280;62867;52.038;29.256;2023-07-30T13:50:21;1015.5;;;25.1;62.1
74435;BME280;62867;52.038;29.256;2023-07-30T13:55:34;1015.4;;;24.9;61.6
74435;BME280;62867;52.038;29.256;2023-07-30T14:00:53;1015.4;;;24.7;62.6
74435;BME280;62867;52.038;29.256;2023-07-30T14:05:50;1015.4;;;24.6;62.5
74435;BME280;62867;52.038;29.256;2023-07-30T14:10:21;1015.5;;;24.6;63
74435;BME280;62867;52.038;29.256;2023-07-30T14:15:15;1015.4;;;24.5;62.6
74435;BME280;62867;52.038;29.256;2023-07-30T14:21:02;1015.5;;;24.5;62.6
74435;BME280;62867;52.038;29.256;2023-07-30T14:26:04;1015.5;;;24.7;62.2
74435;BME280;62867;52.038;29.256;2023-07-30T14:30:48;1015.5;;;24.9;61.8
74435;BME280;62867;52.038;29.256;2023-07-30T14:35:48;1015.5;;;25;61.7
74435;BME280;62867;52.038;29.256;2023-07-30T14:41:00;1015.5;;;25.1;61.1
74435;BME280;62867;52.038;29.256;2023-07-30T14:45:21;1015.4;;;25;61.2
74435;BME280;62867;52.038;29.256;2023-07-30T14:50:15;1015.4;;;25.1;61.1
74435;BME280;62867;52.038;29.256;2023-07-30T14:55:27;1015.4;;;25;60.9
74435;BME280;62867;52.038;29.256;2023-07-30T15:00:51;1015.4;;;24.9;61.1
74435;BME280;62867;52.038;29.256;2023-07-30T15:06:03;1015.3;;;24.8;61.9
74435;BME280;62867;52.038;29.256;2023-07-30T15:10:35;1015.3;;;24.7;61.8
74435;BME280;62867;52.038;29.256;2023-07-30T15:16:03;1015.3;;;24.6;61.8
74435;BME280;62867;52.038;29.256;2023-07-30T15:20:35;1015.3;;;24.5;62.4
74435;BME280;62867;52.038;29.256;2023-07-30T15:26:01;1015.3;;;24.5;62.6
74435;BME280;62867;52.038;29.256;2023-07-30T15:30:36;1015.2;;;24.4;63
74435;BME280;62867;52.038;29.256;2023-07-30T15:35:51;1015.2;;;24.2;63.7
74435;BME280;62867;52.038;29.256;2023-07-30T15:40:47;1015.2;;;23.9;64.2
74435;BME280;62867;52.038;29.256;2023-07-30T15:45:43;1015.1;;;23.8;64.8
74435;BME280;62867;52.038;29.256;2023-07-30T15:50:15;1015.1;;;23.6;65.1
74435;BME280;62867;52.038;29.256;2023-07-30T15:55:21;1015;;;23.5;65.4
74435;BME280;62867;52.038;29.256;2023-07-30T16:01:02;1015;;;23.4;65.6
74435;BME280;62867;52.038;29.256;2023-07-30T16:05:27;1014.9;;;23.4;65.8
74435;BME280;62867;52.038;29.256;2023-07-30T16:11:01;1014.9;;;23.3;66.2
74435;BME280;62867;52.038;29.256;2023-07-30T16:16:08;1015;;;23.2;66.6
74435;BME280;62867;52.038;29.256;2023-07-30T16:20:37;1015.1;;;23.1;67
74435;BME280;62867;52.038;29.256;2023-07-30T16:25:27;1015.2;;;23.1;67.2
74435;BME280;62867;52.038;29.256;2023-07-30T16:30:21;1015.3;;;23.1;67.7
74435;BME280;62867;52.038;29.256;2023-07-30T16:36:01;1015.3;;;23.2;68
74435;BME280;62867;52.038;29.256;2023-07-30T16:40:29;1015.3;;;23.2;67.9
74435;BME280;62867;52.038;29.256;2023-07-30T16:45:33;1015.4;;;23.3;67.8
74435;BME280;62867;52.038;29.256;2023-07-30T16:50:44;1015.4;;;23.3;67.9
74435;BME280;62867;52.038;29.256;2023-07-30T16:56:08;1015.4;;;23.3;67.9
74435;BME280;62867;52.038;29.256;2023-07-30T17:00:21;1015.4;;;23.3;67.9
74435;BME280;62867;52.038;29.256;2023-07-30T17:05:33;1015.4;;;23.3;68.1
74435;BME280;62867;52.038;29.256;2023-07-30T17:10:49;1015.4;;;23.2;68.2
74435;BME280;62867;52.038;29.256;2023-07-30T17:15:37;1015.4;;;23.1;68.3
74435;BME280;62867;52.038;29.256;2023-07-30T17:20:58;1015.4;;;23;68.5
74435;BME280;62867;52.038;29.256;2023-07-30T17:25:15;1015.4;;;23;68.7
74435;BME280;62867;52.038;29.256;2023-07-30T17:30:35;1015.5;;;23;68.9
74435;BME280;62867;52.038;29.256;2023-07-30T17:35:21;1015.5;;;23;68.9
74435;BME280;62867;52.038;29.256;2023-07-30T17:40:33;1015.5;;;22.9;69.1
74435;BME280;62867;52.038;29.256;2023-07-30T17:46:02;1015.6;;;22.9;69
74435;BME280;62867;52.038;29.256;2023-07-30T17:50:49;1015.5;;;22.9;69
74435;BME280;62867;52.038;29.256;2023-07-30T17:56:03;1015.5;;;22.9;68.9
74435;BME280;62867;52.038;29.256;2023-07-30T18:00:15;1015.6;;;22.8;68.7
74435;BME280;62867;52.038;29.256;2023-07-30T18:05:35;1015.6;;;22.6;68.6
74435;BME280;62867;52.038;29.256;2023-07-30T18:10:33;1015.6;;;22.5;68.7
74435;BME280;62867;52.038;29.256;2023-07-30T18:15:27;1015.6;;;22.4;68.8
74435;BME280;62867;52.038;29.256;2023-07-30T18:20:35;1015.6;;;22.3;68.8
74435;BME280;62867;52.038;29.256;2023-07-30T18:25:51;1015.6;;;22.2;69.4
74435;BME280;62867;52.038;29.256;2023-07-30T18:31:05;1015.6;;;22.1;69.1
74435;BME280;62867;52.038;29.256;2023-07-30T18:35:43;1015.7;;;22;68.9
74435;BME280;62867;52.038;29.256;2023-07-30T18:40:21;1015.8;;;21.9;68.8
74435;BME280;62867;52.038;29.256;2023-07-30T18:46:05;1015.8;;;21.8;68.9
74435;BME280;62867;52.038;29.256;2023-07-30T18:50:15;1015.7;;;21.7;68.8
74435;BME280;62867;52.038;29.256;2023-07-30T18:55:33;1015.8;;;21.5;68.6
74435;BME280;62867;52.038;29.256;2023-07-30T19:00:51;1015.9;;;21.4;68.8
74435;BME280;62867;52.038;29.256;2023-07-30T19:05:51;1015.9;;;21.3;69
74435;BME280;62867;52.038;29.256;2023-07-30T19:10:21;1015.9;;;21.2;69.1
74435;BME280;62867;52.038;29.256;2023-07-30T19:15:35;1015.9;;;21.1;69.2
74435;BME280;62867;52.038;29.256;2023-07-30T19:21:05;1016;;;21;69.6
74435;BME280;62867;52.038;29.256;2023-07-30T19:25:17;1016;;;21;69.7
74435;BME280;62867;52.038;29.256;2023-07-30T19:30:49;1016;;;20.9;69.6
74435;BME280;62867;52.038;29.256;2023-07-30T19:35:35;1016;;;20.9;69.6
74435;BME280;62867;52.038;29.256;2023-07-30T19:41:05;1016.2;;;20.8;69.8
74435;BME280;62867;52.038;29.256;2023-07-30T19:45:15;1016.2;;;20.8;69.8
74435;BME280;62867;52.038;29.256;2023-07-30T19:50:17;1016.2;;;20.8;70
74435;BME280;62867;52.038;29.256;2023-07-30T19:55:49;1016.2;;;20.8;70.1
74435;BME280;62867;52.038;29.256;2023-07-30T20:00:37;1016.2;;;20.8;70.4
74435;BME280;62867;52.038;29.256;2023-07-30T20:06:05;1016.3;;;20.8;70.6
74435;BME280;62867;52.038;29.256;2023-07-30T20:10:35;1016.2;;;20.9;70.6
74435;BME280;62867;52.038;29.256;2023-07-30T20:16:09;1016.3;;;21;71
74435;BME280;62867;52.038;29.256;2023-07-30T20:20:15;1016.3;;;21;71
74435;BME280;62867;52.038;29.256;2023-07-30T20:26:09;1016.3;;;21;70.8
74435;BME280;62867;52.038;29.256;2023-07-30T20:30:49;1016.4;;;21;70.6
74435;BME280;62867;52.038;29.256;2023-07-30T20:35:51;1016.4;;;20.9;70.4
74435;BME280;62867;52.038;29.256;2023-07-30T20:40:49;1016.3;;;20.9;70.2
74435;BME280;62867;52.038;29.256;2023-07-30T20:45:49;1016.3;;;20.8;69.8
74435;BME280;62867;52.038;29.256;2023-07-30T20:50:37;1016.2;;;20.7;69.7
74435;BME280;62867;52.038;29.256;2023-07-30T20:55:35;1016.3;;;20.6;69.6
74435;BME280;62867;52.038;29.256;2023-07-30T21:01:05;1016.2;;;20.5;69.7
74435;BME280;62867;52.038;29.256;2023-07-30T21:05:37;1016.2;;;20.4;69.8
74435;BME280;62867;52.038;29.256;2023-07-30T21:11:05;1016.2;;;20.3;70.1
74435;BME280;62867;52.038;29.256;2023-07-30T21:16:05;1016.2;;;20.3;70.3
74435;BME280;62867;52.038;29.256;2023-07-30T21:20:37;1016.2;;;20.2;70.3
74435;BME280;62867;52.038;29.256;2023-07-30T21:25:21;1016.1;;;20.2;70.3
74435;BME280;62867;52.038;29.256;2023-07-30T21:30:15;1016.1;;;20.1;70.2
74435;BME280;62867;52.038;29.256;2023-07-30T21:36:05;1016;;;20.1;70.1
74435;BME280;62867;52.038;29.256;2023-07-30T21:40:49;1016.1;;;20.1;70.2
74435;BME280;62867;52.038;29.256;2023-07-30T21:45:15;1016.1;;;20;70.2
74435;BME280;62867;52.038;29.256;2023-07-30T21:51:05;1016;;;20;70.3
74435;BME280;62867;52.038;29.256;2023-07-30T21:56:05;1016;;;19.9;70.3
74435;BME280;62867;52.038;29.256;2023-07-30T22:00:52;1016;;;19.9;70.2
74435;BME280;62867;52.038;29.256;2023-07-30T22:05:33;1016;;;19.8;70.6
74435;BME280;62867;52.038;29.256;2023-07-30T22:10:23;1016;;;19.8;70.7
74435;BME280;62867;52.038;29.256;2023-07-30T22:15:49;1015.9;;;19.8;70.5
74435;BME280;62867;52.038;29.256;2023-07-30T22:20:35;1015.9;;;19.8;70.6
74435;BME280;62867;52.038;29.256;2023-07-30T22:25:15;1015.9;;;19.8;70.6
74435;BME280;62867;52.038;29.256;2023-07-30T22:30:21;1015.9;;;19.7;70.5
74435;BME280;62867;52.038;29.256;2023-07-30T22:35:15;1016;;;19.7;70.6
74435;BME280;62867;52.038;29.256;2023-07-30T22:40:27;1016;;;19.7;70.5
74435;BME280;62867;52.038;29.256;2023-07-30T22:45:15;1016;;;19.6;70.4
74435;BME280;62867;52.038;29.256;2023-07-30T22:50:51;1016;;;19.6;70.4
74435;BME280;62867;52.038;29.256;2023-07-30T22:56:05;1016;;;19.6;70.6
74435;BME280;62867;52.038;29.256;2023-07-30T23:00:15;1016.1;;;19.5;70.5
74435;BME280;62867;52.038;29.256;2023-07-30T23:05:31;1016.1;;;19.5;70.7
74435;BME280;62867;52.038;29.256;2023-07-30T23:11:05;1016;;;19.5;70.9
74435;BME280;62867;52.038;29.256;2023-07-30T23:16:05;1016;;;19.5;70.8
74435;BME280;62867;52.038;29.256;2023-07-30T23:20:15;1016;;;19.5;70.8
74435;BME280;62867;52.038;29.256;2023-07-30T23:25:51;1016;;;19.5;70.8
74435;BME280;62867;52.038;29.256;2023-07-30T23:30:37;1016;;;19.5;71
74435;BME280;62867;52.038;29.256;2023-07-30T23:35:49;1016;;;19.6;71.1
74435;BME280;62867;52.038;29.256;2023-07-30T23:40:35;1016;;;19.6;71.1
74435;BME280;62867;52.038;29.256;2023-07-30T23:46:05;1016;;;19.7;71.1
74435;BME280;62867;52.038;29.256;2023-07-30T23:51:05;1016;;;19.8;71.3
74435;BME280;62867;52.038;29.256;2023-07-30T23:55:35;1015.9;;;19.8;71.5
